Time;durP1;ratioP1;P1;durP2;ratioP2;P2;SDS_P1;SDS_P2;PMS_P1;PMS_P2;Temp;Humidity;BMP_temperature;BMP_pressure;BME280_temperature;BME280_humidity;BME280_pressure;Samples;Min_cycle;Max_cycle;Signal;HPM_P1;HPM_P2
2022/05/17 00:02:05;;;;;;;10.20;3.90;;;;;;;;;;5115269;28;20440;-66
2022/05/17 00:04:31;;;;;;;5.07;4.03;;;;;;;;;;5115229;28;20418;-66
2022/05/17 00:06:57;;;;;;;4.63;4.40;;;;;;;;;;5115433;28;20397;-64
2022/05/17 00:09:23;;;;;;;4.03;3.70;;;;;;;;;;5115118;28;20755;-64
2022/05/17 00:11:49;;;;;;;6.93;4.27;;;;;;;;;;5114974;28;20403;-63
2022/05/17 00:14:16;;;;;;;4.70;4.33;;;;;;;;;;5115019;28;20456;-63
2022/05/17 00:16:42;;;;;;;6.00;4.50;;;;;;;;;;5114936;28;20537;-63
2022/05/17 00:19:09;;;;;;;4.47;4.27;;;;;;;;;;5114906;28;20478;-63
2022/05/17 00:21:36;;;;;;;4.83;4.40;;;;;;;;;;5114477;28;20408;-63
2022/05/17 00:24:02;;;;;;;7.17;4.60;;;;;;;;;;5115151;28;20497;-63
2022/05/17 00:26:28;;;;;;;9.27;4.50;;;;;;;;;;5114725;28;20400;-65
2022/05/17 00:28:54;;;;;;;11.30;5.10;;;;;;;;;;5114693;28;20427;-64
2022/05/17 00:31:20;;;;;;;9.23;5.07;;;;;;;;;;5114587;28;20427;-66
2022/05/17 00:33:47;;;;;;;7.63;4.50;;;;;;;;;;5096383;28;20431;-65
2022/05/17 00:36:13;;;;;;;8.50;4.70;;;;;;;;;;5114609;28;20908;-65
2022/05/17 00:38:39;;;;;;;6.20;4.50;;;;;;;;;;5114469;28;20454;-65
2022/05/17 00:41:05;;;;;;;9.70;5.37;;;;;;;;;;5114524;28;20498;-65
2022/05/17 00:44:42;;;;;;;9.60;5.57;;;;;;;;;;5114462;28;20460;-66
2022/05/17 00:46:18;;;;;;;9.03;5.50;;;;;;;;;;5114222;28;20423;-64
2022/05/17 00:48:44;;;;;;;9.53;4.70;;;;;;;;;;5114310;28;20402;-65
2022/05/17 00:51:10;;;;;;;5.63;5.00;;;;;;;;;;5114330;28;20414;-65
2022/05/17 00:53:37;;;;;;;4.93;4.63;;;;;;;;;;5114288;28;20769;-64
2022/05/17 00:56:17;;;;;;;5.40;4.50;;;;;;;;;;5114129;28;20458;-65
2022/05/17 00:58:47;;;;;;;7.73;4.73;;;;;;;;;;5114449;28;20471;-63
2022/05/17 01:01:14;;;;;;;5.97;5.40;;;;;;;;;;5114215;28;20460;-64
2022/05/17 01:03:43;;;;;;;5.40;4.93;;;;;;;;;;5114163;28;20422;-64
2022/05/17 01:06:10;;;;;;;5.33;4.40;;;;;;;;;;5113996;28;20413;-63
2022/05/17 01:08:36;;;;;;;5.07;4.57;;;;;;;;;;5114109;28;20411;-63
2022/05/17 01:11:02;;;;;;;9.60;5.07;;;;;;;;;;5114137;28;20772;-63
2022/05/17 01:16:13;;;;;;;8.60;4.40;;;;;;;;;;5113974;28;20502;-64
2022/05/17 01:18:40;;;;;;;5.70;4.90;;;;;;;;;;5113933;28;20555;-64
2022/05/17 01:21:06;;;;;;;11.83;5.30;;;;;;;;;;5114243;28;20403;-64
2022/05/17 01:23:32;;;;;;;7.33;4.90;;;;;;;;;;5113899;28;20770;-63
2022/05/17 01:25:59;;;;;;;6.87;4.60;;;;;;;;;;5113909;28;20402;-64
2022/05/17 01:28:26;;;;;;;6.63;5.63;;;;;;;;;;5113833;28;20495;-64
2022/05/17 01:30:52;;;;;;;7.10;4.40;;;;;;;;;;5113922;28;20409;-63
2022/05/17 01:33:19;;;;;;;11.07;4.90;;;;;;;;;;5097505;28;20783;-64
2022/05/17 01:35:45;;;;;;;8.83;4.97;;;;;;;;;;5118058;28;20761;-63
2022/05/17 01:38:12;;;;;;;6.00;4.67;;;;;;;;;;5099732;28;20994;-63
2022/05/17 01:40:38;;;;;;;5.63;4.43;;;;;;;;;;5117828;28;20415;-63
2022/05/17 01:43:04;;;;;;;9.53;4.40;;;;;;;;;;5099583;28;20984;-63
2022/05/17 01:45:30;;;;;;;6.50;4.67;;;;;;;;;;5117984;28;20497;-63
2022/05/17 01:47:56;;;;;;;10.10;4.83;;;;;;;;;;5117881;28;20406;-63
2022/05/17 01:50:22;;;;;;;7.20;4.97;;;;;;;;;;5117802;28;20457;-64
2022/05/17 01:52:48;;;;;;;8.50;4.80;;;;;;;;;;5117712;28;20399;-63
2022/05/17 01:55:14;;;;;;;17.17;4.40;;;;;;;;;;5117609;28;20473;-63
2022/05/17 01:57:40;;;;;;;9.60;4.50;;;;;;;;;;5117730;28;20505;-63
2022/05/17 02:00:08;;;;;;;4.63;4.10;;;;;;;;;;5117508;28;20551;-63
2022/05/17 02:02:34;;;;;;;9.60;4.83;;;;;;;;;;5099302;28;20796;-64
2022/05/17 02:05:00;;;;;;;4.37;3.97;;;;;;;;;;5117345;28;20414;-63
2022/05/17 02:07:26;;;;;;;6.37;4.57;;;;;;;;;;5117491;28;20859;-63
2022/05/17 02:09:51;;;;;;;6.33;3.97;;;;;;;;;;5117355;28;20414;-63
2022/05/17 02:12:18;;;;;;;5.50;5.10;;;;;;;;;;5117366;28;20418;-65
2022/05/17 02:14:44;;;;;;;8.03;4.83;;;;;;;;;;5117360;28;20441;-65
2022/05/17 02:17:10;;;;;;;5.20;4.53;;;;;;;;;;5117301;28;20409;-65
2022/05/17 02:19:36;;;;;;;5.63;4.60;;;;;;;;;;5117071;28;20955;-66
2022/05/17 02:22:03;;;;;;;5.77;4.50;;;;;;;;;;5117204;28;20431;-66
2022/05/17 02:24:29;;;;;;;8.13;4.30;;;;;;;;;;5117398;28;20410;-66
2022/05/17 02:26:56;;;;;;;5.97;5.40;;;;;;;;;;5117040;28;20427;-65
2022/05/17 02:29:22;;;;;;;6.20;5.17;;;;;;;;;;5117064;28;20398;-63
2022/05/17 02:31:49;;;;;;;5.80;4.83;;;;;;;;;;5117061;28;20400;-64
2022/05/17 02:34:15;;;;;;;5.90;4.50;;;;;;;;;;5117051;28;20520;-63
2022/05/17 02:36:41;;;;;;;4.20;3.97;;;;;;;;;;5116878;28;20897;-63
2022/05/17 02:39:06;;;;;;;8.63;4.93;;;;;;;;;;5116792;28;20460;-63
2022/05/17 02:41:34;;;;;;;16.40;5.03;;;;;;;;;;5116862;28;20900;-65
2022/05/17 02:43:59;;;;;;;5.23;4.83;;;;;;;;;;5098295;28;20431;-66
2022/05/17 02:46:25;;;;;;;7.53;4.80;;;;;;;;;;5116765;28;20411;-64
2022/05/17 02:48:51;;;;;;;4.60;4.30;;;;;;;;;;5116800;28;20501;-65
2022/05/17 02:51:19;;;;;;;6.20;4.83;;;;;;;;;;5116707;28;20787;-65
2022/05/17 02:53:44;;;;;;;6.93;4.20;;;;;;;;;;5116599;28;20432;-65
2022/05/17 02:56:11;;;;;;;6.03;4.97;;;;;;;;;;5116562;28;20572;-66
2022/05/17 02:58:37;;;;;;;6.53;4.47;;;;;;;;;;5116443;28;20544;-65
2022/05/17 03:01:04;;;;;;;5.87;4.70;;;;;;;;;;5116458;28;20398;-64
2022/05/17 03:03:30;;;;;;;4.90;4.50;;;;;;;;;;5116517;28;20415;-65
2022/05/17 03:05:56;;;;;;;8.00;3.90;;;;;;;;;;5116382;28;20899;-66
2022/05/17 03:08:22;;;;;;;4.10;4.00;;;;;;;;;;5116400;28;20773;-66
2022/05/17 03:10:48;;;;;;;7.90;4.23;;;;;;;;;;5116379;28;20401;-64
2022/05/17 03:13:15;;;;;;;5.47;4.03;;;;;;;;;;5116263;28;20427;-65
2022/05/17 03:15:42;;;;;;;3.70;3.50;;;;;;;;;;5116227;28;20400;-66
2022/05/17 03:18:08;;;;;;;5.60;4.27;;;;;;;;;;5116088;28;20894;-65
2022/05/17 03:20:34;;;;;;;4.63;4.23;;;;;;;;;;5116094;28;20413;-64
2022/05/17 03:23:00;;;;;;;8.43;4.37;;;;;;;;;;5115981;28;20406;-65
2022/05/17 03:25:26;;;;;;;5.03;4.27;;;;;;;;;;5115939;28;20473;-64
2022/05/17 03:27:53;;;;;;;9.03;5.07;;;;;;;;;;5115891;28;20425;-63
2022/05/17 03:30:19;;;;;;;9.43;4.70;;;;;;;;;;5097575;28;20444;-65
2022/05/17 03:32:45;;;;;;;15.63;4.80;;;;;;;;;;5115822;28;20424;-65
2022/05/17 03:35:11;;;;;;;5.47;4.90;;;;;;;;;;5115769;28;20409;-67
2022/05/17 03:37:37;;;;;;;7.63;4.73;;;;;;;;;;5115736;28;20477;-66
2022/05/17 03:40:04;;;;;;;10.93;6.83;;;;;;;;;;5115612;28;20952;-66
2022/05/17 03:42:30;;;;;;;16.37;11.53;;;;;;;;;;5115632;28;20436;-66
2022/05/17 03:44:56;;;;;;;14.00;10.07;;;;;;;;;;5115593;28;20888;-67
2022/05/17 03:47:22;;;;;;;8.23;7.50;;;;;;;;;;5115605;28;20888;-66
2022/05/17 03:49:48;;;;;;;5.03;4.70;;;;;;;;;;5115589;28;20903;-67
2022/05/17 03:52:14;;;;;;;10.70;6.77;;;;;;;;;;5115583;28;20402;-67
2022/05/17 03:54:40;;;;;;;4.27;4.00;;;;;;;;;;5096954;28;20426;-67
2022/05/17 03:57:07;;;;;;;5.03;4.73;;;;;;;;;;5114565;28;20474;-66
2022/05/17 03:59:33;;;;;;;8.83;4.10;;;;;;;;;;5115210;28;20466;-67
2022/05/17 04:01:59;;;;;;;4.73;4.33;;;;;;;;;;5115221;28;20404;-67
2022/05/17 04:04:25;;;;;;;4.87;4.40;;;;;;;;;;5115254;28;20492;-67
2022/05/17 04:06:51;;;;;;;5.70;4.07;;;;;;;;;;5096783;28;20461;-67
2022/05/17 04:09:17;;;;;;;40.90;27.07;;;;;;;;;;5115285;28;20474;-67
2022/05/17 04:11:43;;;;;;;14.10;12.60;;;;;;;;;;5115503;28;20440;-66
2022/05/17 04:14:09;;;;;;;50.00;15.20;;;;;;;;;;5115033;28;20781;-67
2022/05/17 04:16:36;;;;;;;39.93;14.10;;;;;;;;;;5115046;28;20882;-67
2022/05/17 04:19:03;;;;;;;19.50;8.50;;;;;;;;;;5114880;28;20513;-67
2022/05/17 04:21:30;;;;;;;16.97;6.97;;;;;;;;;;5114797;28;20442;-66
2022/05/17 04:23:56;;;;;;;34.50;17.13;;;;;;;;;;5114779;28;20561;-67
2022/05/17 04:26:23;;;;;;;28.93;17.30;;;;;;;;;;5114809;28;20881;-67
2022/05/17 04:28:49;;;;;;;19.90;13.30;;;;;;;;;;5114720;28;20423;-67
2022/05/17 04:31:15;;;;;;;18.27;8.27;;;;;;;;;;5096431;28;20422;-67
2022/05/17 04:33:42;;;;;;;7.97;4.60;;;;;;;;;;5114707;28;20495;-67
2022/05/17 04:36:08;;;;;;;4.70;4.40;;;;;;;;;;5114584;28;20400;-67
2022/05/17 04:38:34;;;;;;;10.13;4.53;;;;;;;;;;5114431;28;20461;-67
2022/05/17 04:41:00;;;;;;;4.27;3.97;;;;;;;;;;5114643;28;20878;-67
2022/05/17 04:43:26;;;;;;;5.67;3.90;;;;;;;;;;5114482;28;20594;-67
2022/05/17 04:45:54;;;;;;;7.30;4.50;;;;;;;;;;5114611;28;20411;-67
2022/05/17 04:48:24;;;;;;;4.30;3.97;;;;;;;;;;5096139;28;20434;-67
2022/05/17 04:50:50;;;;;;;5.40;4.40;;;;;;;;;;5114195;28;20905;-67
2022/05/17 04:53:16;;;;;;;6.10;4.00;;;;;;;;;;5114324;28;20446;-67
2022/05/17 04:55:42;;;;;;;5.20;4.20;;;;;;;;;;5114150;28;20530;-67
2022/05/17 04:58:08;;;;;;;5.13;4.73;;;;;;;;;;5114116;28;20410;-67
2022/05/17 05:00:34;;;;;;;6.17;4.60;;;;;;;;;;5114261;28;20427;-67
2022/05/17 05:03:00;;;;;;;7.33;3.90;;;;;;;;;;5114188;28;20774;-67
2022/05/17 05:05:27;;;;;;;4.77;4.53;;;;;;;;;;5114032;28;20423;-67
2022/05/17 05:07:53;;;;;;;4.17;3.93;;;;;;;;;;5095701;28;20427;-67
2022/05/17 05:10:19;;;;;;;7.77;4.10;;;;;;;;;;5114118;28;20413;-64
2022/05/17 05:12:45;;;;;;;4.37;3.97;;;;;;;;;;5114058;28;20891;-64
2022/05/17 05:15:11;;;;;;;9.57;4.50;;;;;;;;;;5114006;28;20419;-64
2022/05/17 05:17:37;;;;;;;4.27;3.90;;;;;;;;;;5113987;28;20494;-63
2022/05/17 05:20:04;;;;;;;7.43;4.53;;;;;;;;;;5113851;28;20976;-68
2022/05/17 05:22:31;;;;;;;4.57;4.17;;;;;;;;;;5113700;28;20487;-67
2022/05/17 05:24:57;;;;;;;7.33;3.93;;;;;;;;;;5113915;28;20445;-64
2022/05/17 05:27:23;;;;;;;4.43;4.13;;;;;;;;;;5113742;28;20411;-60
2022/05/17 05:29:49;;;;;;;7.97;4.40;;;;;;;;;;5113942;28;20412;-61
2022/05/17 05:32:16;;;;;;;4.87;3.40;;;;;;;;;;5095610;28;20423;-60
2022/05/17 05:34:42;;;;;;;5.57;3.90;;;;;;;;;;5113783;28;20415;-61
2022/05/17 05:37:08;;;;;;;3.70;3.40;;;;;;;;;;5113683;28;20798;-60
2022/05/17 05:39:34;;;;;;;9.97;4.00;;;;;;;;;;5113945;28;20691;-64
2022/05/17 05:42:00;;;;;;;4.47;4.10;;;;;;;;;;5113720;28;20407;-64
2022/05/17 05:44:26;;;;;;;4.47;4.10;;;;;;;;;;5113701;28;20488;-64
2022/05/17 05:46:52;;;;;;;4.10;3.80;;;;;;;;;;5113686;28;20486;-64
2022/05/17 05:49:18;;;;;;;9.00;3.10;;;;;;;;;;5113632;28;20411;-61
2022/05/17 05:51:46;;;;;;;5.83;4.10;;;;;;;;;;5113526;28;20864;-62
2022/05/17 05:54:12;;;;;;;5.77;3.90;;;;;;;;;;5113693;28;20408;-63
2022/05/17 05:56:38;;;;;;;3.60;3.47;;;;;;;;;;5113332;28;20461;-60
2022/05/17 05:59:04;;;;;;;3.87;3.57;;;;;;;;;;5113495;28;20554;-62
2022/05/17 06:01:30;;;;;;;5.30;3.50;;;;;;;;;;5113844;28;20493;-62
2022/05/17 06:03:56;;;;;;;4.70;3.70;;;;;;;;;;5113474;28;20896;-63
2022/05/17 06:06:22;;;;;;;9.70;4.33;;;;;;;;;;5113544;28;20408;-61
2022/05/17 06:08:48;;;;;;;12.17;4.30;;;;;;;;;;5113733;28;20433;-61
2022/05/17 06:11:15;;;;;;;3.97;3.67;;;;;;;;;;5113450;28;20406;-64
2022/05/17 06:13:41;;;;;;;6.10;4.40;;;;;;;;;;5113495;28;20440;-61
2022/05/17 06:16:08;;;;;;;5.10;4.23;;;;;;;;;;5113380;28;20868;-63
2022/05/17 06:18:34;;;;;;;5.70;4.60;;;;;;;;;;5113920;28;20502;-63
2022/05/17 06:21:02;;;;;;;8.40;4.20;;;;;;;;;;5117200;28;20397;-61
2022/05/17 06:23:28;;;;;;;5.17;4.63;;;;;;;;;;5117099;28;20409;-63
2022/05/17 06:25:54;;;;;;;6.37;4.37;;;;;;;;;;5117012;28;20773;-63
2022/05/17 06:28:20;;;;;;;5.03;4.53;;;;;;;;;;5116963;28;20421;-65
2022/05/17 06:30:46;;;;;;;4.33;4.13;;;;;;;;;;5117011;28;20410;-63
2022/05/17 06:33:13;;;;;;;4.30;4.00;;;;;;;;;;5117115;28;20421;-64
2022/05/17 06:35:39;;;;;;;5.40;4.63;;;;;;;;;;5116991;28;20398;-64
2022/05/17 06:38:05;;;;;;;6.97;4.20;;;;;;;;;;5116759;28;20890;-64
2022/05/17 06:40:32;;;;;;;5.00;4.03;;;;;;;;;;5117038;28;20808;-64
2022/05/17 06:42:59;;;;;;;3.90;3.63;;;;;;;;;;5117077;28;20434;-65
2022/05/17 06:45:25;;;;;;;9.07;4.40;;;;;;;;;;5098856;28;20432;-65
2022/05/17 06:47:51;;;;;;;9.80;4.70;;;;;;;;;;5098418;28;20911;-64
2022/05/17 06:50:17;;;;;;;4.60;4.30;;;;;;;;;;5116587;28;20926;-64
2022/05/17 06:52:44;;;;;;;9.67;4.37;;;;;;;;;;5116622;28;20857;-64
2022/05/17 06:55:10;;;;;;;20.90;4.97;;;;;;;;;;5116432;28;20462;-64
2022/05/17 06:57:36;;;;;;;4.50;3.57;;;;;;;;;;5098216;28;20435;-64
2022/05/17 07:00:05;;;;;;;7.30;4.10;;;;;;;;;;5116444;28;20562;-65
2022/05/17 07:02:31;;;;;;;5.10;4.70;;;;;;;;;;5116497;28;20418;-65
2022/05/17 07:04:58;;;;;;;6.97;4.20;;;;;;;;;;5116426;28;20492;-65
2022/05/17 07:07:24;;;;;;;4.87;4.47;;;;;;;;;;5116660;28;20426;-65
2022/05/17 07:15:20;;;;;;;6.23;4.60;;;;;;;;;;5116119;28;20398;-60
2022/05/17 07:17:47;;;;;;;5.10;4.80;;;;;;;;;;5116531;28;20394;-63
2022/05/17 07:20:13;;;;;;;10.03;4.50;;;;;;;;;;5115839;28;20532;-59
2022/05/17 07:22:39;;;;;;;5.10;4.60;;;;;;;;;;5116047;28;20396;-59
2022/05/17 07:25:05;;;;;;;8.20;4.27;;;;;;;;;;5097742;28;20425;-62
2022/05/17 07:27:31;;;;;;;4.73;4.33;;;;;;;;;;5115856;28;20484;-63
2022/05/17 07:29:57;;;;;;;5.00;4.40;;;;;;;;;;5115097;28;20497;-62
2022/05/17 07:32:23;;;;;;;8.57;4.43;;;;;;;;;;5115609;28;20522;-62
2022/05/17 07:34:49;;;;;;;4.87;4.53;;;;;;;;;;5115769;28;20911;-60
2022/05/17 07:37:15;;;;;;;5.97;5.27;;;;;;;;;;5097452;28;20453;-60
2022/05/17 07:39:41;;;;;;;4.50;4.10;;;;;;;;;;5115692;28;20861;-63
2022/05/17 07:42:08;;;;;;;4.73;4.20;;;;;;;;;;5115576;28;20399;-62
2022/05/17 07:44:34;;;;;;;4.43;4.00;;;;;;;;;;5115681;28;20408;-61
2022/05/17 07:47:01;;;;;;;4.47;4.07;;;;;;;;;;5115458;28;20886;-60
2022/05/17 07:49:27;;;;;;;5.60;4.17;;;;;;;;;;5115508;28;20416;-61
2022/05/17 07:51:54;;;;;;;8.13;4.67;;;;;;;;;;5097092;28;20419;-61
2022/05/17 07:54:20;;;;;;;5.13;4.73;;;;;;;;;;5115630;28;20416;-60
2022/05/17 07:56:46;;;;;;;7.33;4.23;;;;;;;;;;5115134;28;20488;-60
2022/05/17 07:59:12;;;;;;;6.10;4.37;;;;;;;;;;5115235;28;20503;-62
2022/05/17 08:01:38;;;;;;;6.93;4.23;;;;;;;;;;5097075;28;20466;-61
2022/05/17 08:04:04;;;;;;;9.03;3.70;;;;;;;;;;5115256;28;20417;-60
2022/05/17 08:06:30;;;;;;;6.83;3.93;;;;;;;;;;5115071;28;20429;-66
2022/05/17 08:08:56;;;;;;;4.80;3.87;;;;;;;;;;5096842;28;20423;-64
2022/05/17 08:11:24;;;;;;;6.10;4.27;;;;;;;;;;5115088;28;20409;-64
2022/05/17 08:13:50;;;;;;;6.80;3.80;;;;;;;;;;5115286;28;20450;-64
2022/05/17 08:16:16;;;;;;;3.30;3.00;;;;;;;;;;5115246;28;20777;-63
2022/05/17 08:18:43;;;;;;;6.40;3.87;;;;;;;;;;5114879;28;21063;-64
2022/05/17 08:21:09;;;;;;;6.10;3.73;;;;;;;;;;5114818;28;20448;-62
2022/05/17 08:23:35;;;;;;;10.47;3.77;;;;;;;;;;5114756;28;20404;-61
2022/05/17 08:28:47;;;;;;;3.30;3.00;;;;;;;;;;5114679;28;20919;-61
2022/05/17 08:31:13;;;;;;;3.40;3.30;;;;;;;;;;5114971;28;20404;-64
2022/05/17 08:33:39;;;;;;;5.50;3.80;;;;;;;;;;5114786;28;20842;-66
2022/05/17 08:36:06;;;;;;;3.73;3.47;;;;;;;;;;5114555;28;20404;-65
2022/05/17 08:38:37;;;;;;;7.70;3.70;;;;;;;;;;5114685;28;20493;-63
2022/05/17 08:41:21;;;;;;;7.20;3.70;;;;;;;;;;5114659;28;20433;-61
2022/05/17 08:43:50;;;;;;;3.00;2.87;;;;;;;;;;5114442;28;20500;-64
2022/05/17 08:46:19;;;;;;;7.13;3.63;;;;;;;;;;5096103;28;20427;-62
2022/05/17 08:48:50;;;;;;;5.77;3.03;;;;;;;;;;5114602;28;20465;-63
2022/05/17 08:51:17;;;;;;;8.77;3.37;;;;;;;;;;5114379;28;20403;-63
2022/05/17 08:53:44;;;;;;;6.03;3.60;;;;;;;;;;5114278;28;20397;-61
2022/05/17 08:56:11;;;;;;;3.77;3.47;;;;;;;;;;5114204;28;20592;-62
2022/05/17 08:58:39;;;;;;;3.40;3.20;;;;;;;;;;5114122;28;20460;-63
2022/05/17 09:01:12;;;;;;;5.07;3.40;;;;;;;;;;5114457;28;20734;-66
2022/05/17 09:03:44;;;;;;;4.90;3.10;;;;;;;;;;5114175;28;20450;-64
2022/05/17 09:06:16;;;;;;;3.40;3.20;;;;;;;;;;5113971;28;20407;-63
2022/05/17 09:08:45;;;;;;;3.70;3.40;;;;;;;;;;5114263;28;20403;-63
2022/05/17 09:11:21;;;;;;;4.43;3.50;;;;;;;;;;5114192;28;20406;-67
2022/05/17 09:13:49;;;;;;;4.03;3.30;;;;;;;;;;5114206;28;20418;-63
2022/05/17 09:16:15;;;;;;;3.37;2.90;;;;;;;;;;5113839;28;20430;-66
2022/05/17 09:18:44;;;;;;;3.40;3.30;;;;;;;;;;5114050;28;20502;-62
2022/05/17 09:21:33;;;;;;;3.90;3.57;;;;;;;;;;5113853;28;20436;-62
2022/05/17 09:24:04;;;;;;;4.20;3.20;;;;;;;;;;5113785;28;20877;-61
2022/05/17 09:26:30;;;;;;;3.13;2.93;;;;;;;;;;5113914;28;20492;-61
2022/05/17 09:29:00;;;;;;;3.03;2.70;;;;;;;;;;5113856;28;20479;-63
2022/05/17 09:31:28;;;;;;;3.20;3.00;;;;;;;;;;5113842;28;20396;-62
2022/05/17 09:33:56;;;;;;;9.30;3.40;;;;;;;;;;5113950;28;20501;-63
2022/05/17 09:36:24;;;;;;;3.27;2.90;;;;;;;;;;5113811;28;20434;-61
2022/05/17 09:38:51;;;;;;;4.40;3.53;;;;;;;;;;5113599;28;20467;-64
2022/05/17 09:41:21;;;;;;;3.80;3.60;;;;;;;;;;5113624;28;20418;-62
2022/05/17 09:43:50;;;;;;;7.10;3.53;;;;;;;;;;5113711;28;20417;-62
2022/05/17 09:46:17;;;;;;;4.23;3.23;;;;;;;;;;5113660;28;20405;-65
2022/05/17 09:54:36;;;;;;;5.60;3.07;;;;;;;;;;5115950;28;20495;-61
2022/05/17 09:57:22;;;;;;;4.23;2.80;;;;;;;;;;5117472;28;20465;-61
2022/05/17 09:59:49;;;;;;;4.67;3.67;;;;;;;;;;5117449;28;20471;-66
2022/05/17 10:02:37;;;;;;;7.43;3.10;;;;;;;;;;5117441;28;20417;-63
2022/05/17 10:05:14;;;;;;;7.07;3.07;;;;;;;;;;5099194;28;20428;-64
2022/05/17 10:07:40;;;;;;;3.60;3.00;;;;;;;;;;5117533;28;20414;-65
2022/05/17 10:10:30;;;;;;;7.33;3.00;;;;;;;;;;5117417;28;20404;-62
2022/05/17 10:13:00;;;;;;;3.30;3.10;;;;;;;;;;5104401;28;20432;-62
2022/05/17 10:15:28;;;;;;;3.57;3.27;;;;;;;;;;5117431;28;20483;-61
2022/05/17 10:17:56;;;;;;;2.80;2.60;;;;;;;;;;5117349;28;20498;-62
2022/05/17 10:20:30;;;;;;;2.60;2.40;;;;;;;;;;5117105;28;20466;-64
2022/05/17 10:22:56;;;;;;;4.33;2.23;;;;;;;;;;5117276;28;20426;-65
2022/05/17 10:25:41;;;;;;;6.07;2.90;;;;;;;;;;5117151;28;20882;-62
2022/05/17 10:28:10;;;;;;;6.23;2.37;;;;;;;;;;5098690;28;20415;-60
2022/05/17 10:30:51;;;;;;;2.93;2.67;;;;;;;;;;5117136;28;20412;-60
2022/05/17 10:33:22;;;;;;;3.53;1.90;;;;;;;;;;5117232;28;20402;-62
2022/05/17 10:35:49;;;;;;;3.77;3.00;;;;;;;;;;5117039;28;20417;-60
2022/05/17 10:38:20;;;;;;;10.13;3.17;;;;;;;;;;5116447;28;20400;-60
2022/05/17 10:40:49;;;;;;;2.77;2.57;;;;;;;;;;5116475;28;20398;-62
2022/05/17 10:43:21;;;;;;;3.53;2.70;;;;;;;;;;5116671;28;20553;-62
2022/05/17 10:45:56;;;;;;;3.43;3.20;;;;;;;;;;5116774;28;20425;-61
2022/05/17 10:48:28;;;;;;;4.77;2.77;;;;;;;;;;5116587;28;20410;-61
2022/05/17 10:51:12;;;;;;;2.20;2.10;;;;;;;;;;5116474;28;20489;-62
2022/05/17 10:53:46;;;;;;;2.73;2.43;;;;;;;;;;5116244;28;20495;-61
2022/05/17 10:56:36;;;;;;;4.93;2.47;;;;;;;;;;5116352;28;20519;-61
2022/05/17 10:59:20;;;;;;;2.97;2.53;;;;;;;;;;5116120;28;20524;-60
2022/05/17 11:01:46;;;;;;;2.70;2.50;;;;;;;;;;5116272;28;20404;-61
2022/05/17 11:04:24;;;;;;;3.27;2.40;;;;;;;;;;5116188;28;20414;-61
2022/05/17 11:07:17;;;;;;;3.50;2.63;;;;;;;;;;5116316;28;20400;-61
2022/05/17 11:09:46;;;;;;;5.60;2.10;;;;;;;;;;5116132;28;20460;-61
2022/05/17 11:12:13;;;;;;;3.70;2.43;;;;;;;;;;5115623;28;20922;-61
2022/05/17 11:14:45;;;;;;;8.27;2.70;;;;;;;;;;5116216;28;20490;-62
2022/05/17 11:17:11;;;;;;;2.93;2.60;;;;;;;;;;5115898;28;20404;-61
2022/05/17 11:19:39;;;;;;;4.00;2.20;;;;;;;;;;5115874;28;20468;-62
2022/05/17 11:22:14;;;;;;;2.50;2.30;;;;;;;;;;5116087;28;20173;-61
2022/05/17 11:25:01;;;;;;;6.87;2.73;;;;;;;;;;5116221;28;20412;-61
2022/05/17 11:27:51;;;;;;;3.33;2.23;;;;;;;;;;5115988;28;20975;-61
2022/05/17 11:30:19;;;;;;;3.63;2.00;;;;;;;;;;5115903;28;20420;-64
2022/05/17 11:33:03;;;;;;;2.23;2.13;;;;;;;;;;5115608;28;20466;-61
2022/05/17 11:35:29;;;;;;;9.67;2.20;;;;;;;;;;5115809;28;20400;-61
2022/05/17 11:37:55;;;;;;;2.53;2.33;;;;;;;;;;5115625;28;20404;-62
2022/05/17 11:40:40;;;;;;;2.73;2.43;;;;;;;;;;5115627;28;20202;-62
2022/05/17 11:45:55;;;;;;;11.50;2.27;;;;;;;;;;5115807;28;20402;-62
2022/05/17 11:48:22;;;;;;;7.53;2.47;;;;;;;;;;5115763;28;20409;-62
2022/05/17 11:50:58;;;;;;;2.43;2.33;;;;;;;;;;5115278;28;20879;-62
2022/05/17 11:53:24;;;;;;;3.70;2.30;;;;;;;;;;5115192;28;20404;-62
2022/05/17 11:56:17;;;;;;;2.30;2.20;;;;;;;;;;5114660;28;20459;-62
2022/05/17 11:58:44;;;;;;;2.80;2.33;;;;;;;;;;5075676;28;20479;-62
2022/05/17 12:01:31;;;;;;;4.53;2.10;;;;;;;;;;5115665;28;20421;-62
2022/05/17 12:04:02;;;;;;;6.20;1.83;;;;;;;;;;5115243;28;20970;-62
2022/05/17 12:06:29;;;;;;;3.00;2.40;;;;;;;;;;5114930;28;20438;-62
2022/05/17 12:08:55;;;;;;;4.83;2.10;;;;;;;;;;5115044;28;20407;-62
2022/05/17 12:11:30;;;;;;;3.60;2.30;;;;;;;;;;5114909;28;20412;-61
2022/05/17 12:14:11;;;;;;;2.40;2.20;;;;;;;;;;5114978;28;20424;-65
2022/05/17 12:16:38;;;;;;;2.63;1.93;;;;;;;;;;5114744;28;20428;-63
2022/05/17 12:19:07;;;;;;;5.63;2.43;;;;;;;;;;5114877;28;20456;-62
2022/05/17 12:21:56;;;;;;;2.77;2.57;;;;;;;;;;5114865;28;20409;-66
2022/05/17 12:24:25;;;;;;;2.23;1.80;;;;;;;;;;5114737;28;20483;-64
2022/05/17 12:27:00;;;;;;;6.10;2.27;;;;;;;;;;5114918;28;20404;-63
2022/05/17 12:32:12;;;;;;;1.80;1.70;;;;;;;;;;5114739;28;20418;-64
2022/05/17 12:34:38;;;;;;;4.40;2.10;;;;;;;;;;5114698;28;20775;-66
2022/05/17 12:37:12;;;;;;;3.30;2.07;;;;;;;;;;5114648;28;20496;-64
2022/05/17 12:45:12;;;;;;;2.30;2.10;;;;;;;;;;5099330;28;20431;-65
2022/05/17 12:47:43;;;;;;;2.60;2.20;;;;;;;;;;5114053;28;20915;-64
2022/05/17 12:50:14;;;;;;;2.97;1.50;;;;;;;;;;5113970;28;20887;-64
2022/05/17 12:52:41;;;;;;;2.23;2.13;;;;;;;;;;5113930;28;20458;-65
2022/05/17 12:55:11;;;;;;;2.10;1.90;;;;;;;;;;5114084;28;20458;-65
2022/05/17 12:57:38;;;;;;;9.97;2.10;;;;;;;;;;5114353;28;20420;-66
2022/05/17 13:00:11;;;;;;;2.07;1.87;;;;;;;;;;5114073;28;20803;-63
2022/05/17 13:02:41;;;;;;;5.40;2.47;;;;;;;;;;5113878;28;20404;-63
2022/05/17 13:05:22;;;;;;;1.70;1.60;;;;;;;;;;5113904;28;20417;-63
2022/05/17 13:07:48;;;;;;;2.23;2.23;;;;;;;;;;5113831;28;20404;-63
2022/05/17 13:10:14;;;;;;;2.00;1.90;;;;;;;;;;5114053;28;20778;-64
2022/05/17 13:12:42;;;;;;;2.60;1.70;;;;;;;;;;5113641;28;20420;-64
2022/05/17 13:15:09;;;;;;;1.70;1.60;;;;;;;;;;5113981;28;20423;-65
2022/05/17 13:17:38;;;;;;;4.17;1.60;;;;;;;;;;5113826;28;20416;-64
2022/05/17 13:20:12;;;;;;;2.03;1.87;;;;;;;;;;5113877;28;20472;-64
2022/05/17 13:22:43;;;;;;;3.60;1.50;;;;;;;;;;5113821;28;20437;-64
2022/05/17 13:25:13;;;;;;;1.57;1.57;;;;;;;;;;5114040;28;20817;-65
2022/05/17 13:27:44;;;;;;;1.97;1.87;;;;;;;;;;5095137;28;20469;-65
2022/05/17 13:30:29;;;;;;;1.80;1.70;;;;;;;;;;5113347;28;20411;-63
2022/05/17 13:32:57;;;;;;;2.73;1.83;;;;;;;;;;5114081;28;20733;-65
2022/05/17 13:35:33;;;;;;;2.10;2.00;;;;;;;;;;5113797;28;20800;-65
2022/05/17 13:38:02;;;;;;;2.90;1.90;;;;;;;;;;5095510;28;20415;-62
2022/05/17 13:40:43;;;;;;;3.60;1.70;;;;;;;;;;5113686;28;20470;-67
2022/05/17 13:43:31;;;;;;;3.70;2.30;;;;;;;;;;5113909;28;20404;-65
2022/05/17 13:46:22;;;;;;;1.97;1.87;;;;;;;;;;5113807;28;20430;-64
2022/05/17 13:48:48;;;;;;;2.17;2.07;;;;;;;;;;5113619;28;20409;-65
2022/05/17 13:51:21;;;;;;;3.40;1.80;;;;;;;;;;5095389;28;20439;-63
2022/05/17 13:53:49;;;;;;;2.20;2.10;;;;;;;;;;5113675;28;20653;-64
2022/05/17 13:56:15;;;;;;;2.10;2.00;;;;;;;;;;5113468;28;20468;-66
2022/05/17 13:58:45;;;;;;;2.63;2.00;;;;;;;;;;5113537;28;20464;-64
2022/05/17 14:01:27;;;;;;;4.30;2.47;;;;;;;;;;5113694;28;20894;-64
2022/05/17 14:04:11;;;;;;;1.90;1.80;;;;;;;;;;5113966;28;20412;-64
2022/05/17 14:06:56;;;;;;;2.57;2.37;;;;;;;;;;5113460;28;20400;-64
2022/05/17 14:12:15;;;;;;;3.60;2.10;;;;;;;;;;5113693;28;20913;-65
2022/05/17 14:14:41;;;;;;;3.70;2.00;;;;;;;;;;5113582;28;20763;-65
2022/05/17 14:17:11;;;;;;;1.70;1.60;;;;;;;;;;5095211;28;20499;-65
2022/05/17 14:19:37;;;;;;;1.73;1.70;;;;;;;;;;5113368;28;20467;-65
2022/05/17 14:22:05;;;;;;;2.10;1.90;;;;;;;;;;5113408;28;20401;-65
2022/05/17 14:24:31;;;;;;;3.17;1.70;;;;;;;;;;5113238;28;20473;-64
2022/05/17 14:26:58;;;;;;;3.93;1.90;;;;;;;;;;5113417;28;20907;-64
2022/05/17 14:29:26;;;;;;;2.47;2.27;;;;;;;;;;5113321;28;20413;-64
2022/05/17 14:31:52;;;;;;;2.47;2.27;;;;;;;;;;5113543;28;20401;-64
2022/05/17 14:34:24;;;;;;;7.13;2.00;;;;;;;;;;5113264;28;20401;-65
2022/05/17 14:36:50;;;;;;;2.27;1.90;;;;;;;;;;5095035;28;20413;-64
2022/05/17 14:39:16;;;;;;;2.40;2.00;;;;;;;;;;5113278;28;20490;-64
2022/05/17 14:41:43;;;;;;;2.50;2.40;;;;;;;;;;5117113;28;20484;-62
2022/05/17 14:44:09;;;;;;;3.40;2.13;;;;;;;;;;5116859;28;20420;-62
2022/05/17 14:46:35;;;;;;;1.70;1.70;;;;;;;;;;5116729;28;20470;-63
2022/05/17 14:49:01;;;;;;;2.20;2.10;;;;;;;;;;5116675;28;20405;-63
2022/05/17 14:51:28;;;;;;;3.43;2.03;;;;;;;;;;5116716;28;20403;-64
2022/05/17 14:53:54;;;;;;;5.90;2.27;;;;;;;;;;5116531;28;20423;-64
2022/05/17 14:56:21;;;;;;;2.30;2.20;;;;;;;;;;5116438;28;20486;-63
2022/05/17 14:58:47;;;;;;;2.33;2.23;;;;;;;;;;5116449;28;20474;-64
2022/05/17 15:01:15;;;;;;;2.50;2.40;;;;;;;;;;5116565;28;20413;-63
2022/05/17 15:03:44;;;;;;;2.13;1.93;;;;;;;;;;5116743;28;20436;-64
2022/05/17 15:06:10;;;;;;;3.30;2.30;;;;;;;;;;5116461;28;20930;-64
2022/05/17 15:08:37;;;;;;;2.40;2.20;;;;;;;;;;5116426;28;20412;-63
2022/05/17 15:11:03;;;;;;;2.73;2.50;;;;;;;;;;5116556;28;20401;-63
2022/05/17 15:13:29;;;;;;;2.10;1.97;;;;;;;;;;5097955;28;20429;-62
2022/05/17 15:15:55;;;;;;;2.53;2.43;;;;;;;;;;5116542;28;20415;-63
2022/05/17 15:18:23;;;;;;;4.50;2.00;;;;;;;;;;5116127;28;20409;-62
2022/05/17 15:20:53;;;;;;;2.40;2.20;;;;;;;;;;5116444;28;20477;-62